Bookmark and Share
Track history (hours):
 

Cinderella 1

Last reported at 2014-Apr-20 11:33 UTC. Time now 2014-Apr-20 13:21 UTC.
Position N 59°22' E 018°16'.

Length 42 m; draft 1.1 m.

Type: Passenger vessel. MMSI: 265524530.

NotesDate/timePositionNaut miles runAvg speedWind from/ knotsBaromVisibWave heightAir tempDewpointWater temp
2014-Apr-20 11:33N 59°22' E 018°16'6 6.4
2014-Apr-20 10:34N 59°20' E 018°05'0 0.0
2014-Apr-20 09:34N 59°20' E 018°05'0 0.0
2014-Apr-20 08:34N 59°20' E 018°05'0 0.1
2014-Apr-20 07:22N 59°20' E 018°05'0 0.1
2014-Apr-20 06:33N 59°20' E 018°05'0 0.0
2014-Apr-20 05:33N 59°20' E 018°05'0 0.0
2014-Apr-20 04:33N 59°20' E 018°05'0 0.0
2014-Apr-20 03:33N 59°20' E 018°05'0 0.0
2014-Apr-20 02:33N 59°20' E 018°05'0 0.0
2014-Apr-20 01:33N 59°20' E 018°05'0 0.0
2014-Apr-20 00:33N 59°20' E 018°05'0 0.0
2014-Apr-19 23:33N 59°20' E 018°05'0 0.0
2014-Apr-19 22:33N 59°20' E 018°05'0 0.0
2014-Apr-19 21:33N 59°20' E 018°05'0 0.0
2014-Apr-19 20:33N 59°20' E 018°05'0 0.0
2014-Apr-19 19:33N 59°20' E 018°05'0 0.0
2014-Apr-19 18:33N 59°20' E 018°05'0 0.0
2014-Apr-19 17:33N 59°20' E 018°05'0 0.0
2014-Apr-19 16:33N 59°20' E 018°05'0 0.0
2014-Apr-19 15:33N 59°20' E 018°05'0 0.0
2014-Apr-19 14:33N 59°20' E 018°05'3 2.5
2014-Apr-19 13:33N 59°19' E 018°09'5 0.9
2014-Apr-19 08:33N 59°22' E 018°16'6 6.4
2014-Apr-19 07:33N 59°20' E 018°05'0 0.0
2014-Apr-19 06:33N 59°20' E 018°05'0 0.0
2014-Apr-19 05:33N 59°20' E 018°05'0 0.0
2014-Apr-19 04:33N 59°20' E 018°05'0 0.0
2014-Apr-19 03:33N 59°20' E 018°05'0 0.0
2014-Apr-19 02:33N 59°20' E 018°05'0 0.0
2014-Apr-19 01:33N 59°20' E 018°05'0 0.0
2014-Apr-19 00:33N 59°20' E 018°05'0 0.0
2014-Apr-18 23:33N 59°20' E 018°05'0 0.0
2014-Apr-18 22:33N 59°20' E 018°05'0 0.0
2014-Apr-18 21:33N 59°20' E 018°05'0 0.0
2014-Apr-18 20:33N 59°20' E 018°05'0 0.0
2014-Apr-18 19:33N 59°20' E 018°05'0 0.0
2014-Apr-18 18:33N 59°20' E 018°05'0 0.0
2014-Apr-18 17:33N 59°20' E 018°05'0 0.0
2014-Apr-18 16:33N 59°20' E 018°05'5 5.1
2014-Apr-18 15:30N 59°21' E 018°15'0 0.1
2014-Apr-18 11:33N 59°22' E 018°16'6 5.8
2014-Apr-18 10:33N 59°20' E 018°05'0 0.0
2014-Apr-18 09:33N 59°20' E 018°05'0 0.0
2014-Apr-18 08:33N 59°20' E 018°05'0 0.0
2014-Apr-18 07:33N 59°20' E 018°05'0 0.0
2014-Apr-18 06:33N 59°20' E 018°05'0 0.0
2014-Apr-18 05:33N 59°20' E 018°05'0 0.0
2014-Apr-18 04:33N 59°20' E 018°05'0 0.0
2014-Apr-18 03:33N 59°20' E 018°05'0 0.0
2014-Apr-18 02:33N 59°20' E 018°05'0 0.0
2014-Apr-18 01:33N 59°20' E 018°05'0 0.0
2014-Apr-18 00:33N 59°20' E 018°05'0 0.0
2014-Apr-17 23:33N 59°20' E 018°05'0 0.0
2014-Apr-17 22:33N 59°20' E 018°05'0 0.0
2014-Apr-17 21:33N 59°20' E 018°05'0 0.0
2014-Apr-17 20:33N 59°20' E 018°05'8 1.8
2014-Apr-17 16:08N 59°23' E 018°19'813.5
2014-Apr-17 15:33N 59°20' E 018°05'0 0.5
2014-Apr-17 14:33N 59°20' E 018°05'0 0.0
2014-Apr-17 13:33N 59°20' E 018°05'0 0.0
2014-Apr-17 12:33N 59°20' E 018°05'0 0.0
2014-Apr-16 16:33N 59°20' E 018°05'0 0.0
2014-Apr-16 15:33N 59°20' E 018°05'0 0.0
2014-Apr-16 14:33N 59°20' E 018°05'0 0.0
2014-Apr-16 13:33N 59°20' E 018°05'0 0.0
2014-Apr-16 12:33N 59°20' E 018°05'0 0.0
2014-Apr-16 11:33N 59°20' E 018°05'0 0.0
2014-Apr-16 10:33N 59°20' E 018°05'0 0.0
2014-Apr-16 09:33N 59°20' E 018°05'0 0.0
2014-Apr-16 08:33N 59°20' E 018°05'0 0.0
2014-Apr-16 07:33N 59°20' E 018°05'0 0.0
2014-Apr-16 06:33N 59°20' E 018°05'0 0.0
2014-Apr-16 05:33N 59°20' E 018°05'0 0.0
2014-Apr-16 04:33N 59°20' E 018°05'0 0.0
2014-Apr-16 03:33N 59°20' E 018°05'0 0.0
2014-Apr-16 02:33N 59°20' E 018°05'0 0.0
2014-Apr-16 01:33N 59°20' E 018°05'0 0.0
2014-Apr-16 00:33N 59°20' E 018°05'0 0.0
2014-Apr-15 23:33N 59°20' E 018°05'0 0.0
2014-Apr-15 22:33N 59°20' E 018°05'0 0.0
2014-Apr-15 21:33N 59°20' E 018°05'0 0.0
2014-Apr-15 20:33N 59°20' E 018°05'0 0.0
2014-Apr-15 19:33N 59°20' E 018°05'0 0.0
2014-Apr-15 18:33N 59°20' E 018°05'0 0.0
2014-Apr-15 17:33N 59°20' E 018°05'0 0.0
2014-Apr-15 16:33N 59°20' E 018°05'0 0.0
2014-Apr-15 15:33N 59°20' E 018°05'0 0.0
2014-Apr-15 14:33N 59°20' E 018°05'0 0.0
2014-Apr-15 12:34N 59°20' E 018°05'0 0.0
2014-Apr-15 11:34N 59°20' E 018°05'0 0.0
2014-Apr-15 10:34N 59°20' E 018°05'0 0.0
2014-Apr-15 09:34N 59°20' E 018°05'0 0.0
2014-Apr-15 08:34N 59°20' E 018°05'0 0.0
2014-Apr-15 07:34N 59°20' E 018°05'0 0.0
2014-Apr-15 06:34N 59°20' E 018°05'0 0.0
2014-Apr-15 05:34N 59°20' E 018°05'0 0.0
2014-Apr-15 03:34N 59°20' E 018°05'0 0.0
2014-Apr-15 02:34N 59°20' E 018°05'0 0.0
2014-Apr-15 01:34N 59°20' E 018°05'0 0.0
2014-Apr-15 00:34N 59°20' E 018°05'0 0.0
2014-Apr-14 23:34N 59°20' E 018°05'0 0.0
2014-Apr-14 22:34N 59°20' E 018°05'0 0.0
2014-Apr-14 21:34N 59°20' E 018°05'0 0.0
2014-Apr-14 20:34N 59°20' E 018°05'0 0.0
2014-Apr-14 19:34N 59°20' E 018°05'0 0.0
2014-Apr-14 18:34N 59°20' E 018°05'0 0.0
2014-Apr-14 17:34N 59°20' E 018°05'0 0.0
2014-Apr-14 16:34N 59°20' E 018°05'0 0.0
2014-Apr-14 15:34N 59°20' E 018°05'0 0.0
2014-Apr-14 14:34N 59°20' E 018°05'0 0.0
2014-Apr-14 13:34N 59°20' E 018°05'0 0.0
2014-Apr-14 11:34N 59°20' E 018°05'0 0.0
2014-Apr-14 10:33N 59°20' E 018°05'0 0.0
2014-Apr-14 09:34N 59°20' E 018°05'0 0.0
2014-Apr-14 08:33N 59°20' E 018°05'0 0.0
2014-Apr-14 07:33N 59°20' E 018°05'0 0.0
2014-Apr-14 06:34N 59°20' E 018°05'0 0.0
2014-Apr-14 05:34N 59°20' E 018°05'0 0.0
2014-Apr-13 22:34N 59°20' E 018°05'0 0.0
2014-Apr-13 21:33N 59°20' E 018°05'0 0.0
2014-Apr-13 20:33N 59°20' E 018°05'0 0.0
2014-Apr-13 19:33N 59°20' E 018°05'0 0.0
2014-Apr-13 18:34N 59°20' E 018°05'0 0.0
2014-Apr-13 17:34N 59°20' E 018°05'0 0.0
2014-Apr-13 16:34N 59°20' E 018°05'0 0.0
2014-Apr-13 15:33N 59°20' E 018°05'0 0.0
2014-Apr-13 14:34N 59°20' E 018°05'0 0.0
2014-Apr-13 13:34N 59°20' E 018°05'0 0.0
2014-Apr-13 12:34N 59°20' E 018°05'0 0.0
2014-Apr-13 11:33N 59°20' E 018°05'0 0.0
2014-Apr-13 10:34N 59°20' E 018°05'0 0.0
2014-Apr-13 09:32N 59°20' E 018°05'0 0.0
2014-Apr-13 08:33N 59°20' E 018°05'0 0.0
2014-Apr-13 07:34N 59°20' E 018°05'0 0.0
2014-Apr-13 06:34N 59°20' E 018°05'0 0.0
2014-Apr-13 05:34N 59°20' E 018°05'0 0.0
2014-Apr-13 04:33N 59°20' E 018°05'0 0.0
2014-Apr-13 03:33N 59°20' E 018°05'0 0.0
2014-Apr-13 02:34N 59°20' E 018°05'0 0.0
2014-Apr-13 01:34N 59°20' E 018°05'0 0.0
2014-Apr-13 00:33N 59°20' E 018°05'0 0.0
2014-Apr-12 23:33N 59°20' E 018°05'0 0.0
2014-Apr-12 22:34N 59°20' E 018°05'0 0.0
2014-Apr-12 21:34N 59°20' E 018°05'0 0.0
2014-Apr-12 20:34N 59°20' E 018°05'0 0.0
2014-Apr-12 19:34N 59°20' E 018°05'0 0.0
2014-Apr-12 18:33N 59°20' E 018°05'0 0.0
2014-Apr-12 17:34N 59°20' E 018°05'0 0.0
2014-Apr-12 16:34N 59°20' E 018°05'0 0.0
2014-Apr-12 15:34N 59°20' E 018°05'0 0.0
2014-Apr-12 14:33N 59°20' E 018°05'0 0.0
2014-Apr-12 13:33N 59°20' E 018°05'0 0.0
2014-Apr-12 12:34N 59°20' E 018°05'0 0.0
2014-Apr-12 11:34N 59°20' E 018°05'0 0.0
2014-Apr-12 10:34N 59°20' E 018°05'0 0.0
2014-Apr-12 09:34N 59°20' E 018°05'0 0.0
2014-Apr-12 08:34N 59°20' E 018°05'0 0.0
2014-Apr-12 07:33N 59°20' E 018°05'0 0.0
2014-Apr-12 06:34N 59°20' E 018°05'0 0.0
2014-Apr-12 05:34N 59°20' E 018°05'0 0.0
2014-Apr-12 04:33N 59°20' E 018°05'0 0.0
2014-Apr-12 03:34N 59°20' E 018°05'0 0.0
2014-Apr-12 02:33N 59°20' E 018°05'0 0.0
2014-Apr-12 01:34N 59°20' E 018°05'0 0.0
2014-Apr-12 00:34N 59°20' E 018°05'0 0.0
2014-Apr-11 23:34N 59°20' E 018°05'0 0.0
2014-Apr-11 22:34N 59°20' E 018°05'0 0.0
2014-Apr-11 21:34N 59°20' E 018°05'0 0.0
2014-Apr-11 20:33N 59°20' E 018°05'0 0.0
2014-Apr-11 19:33N 59°20' E 018°05'0 0.0
2014-Apr-11 18:34N 59°20' E 018°05'0 0.0
2014-Apr-11 17:34N 59°20' E 018°05'0 0.0
2014-Apr-11 16:34N 59°20' E 018°05'0 0.0
2014-Apr-11 15:34N 59°20' E 018°05'0 0.0
2014-Apr-11 14:34N 59°20' E 018°05'0 0.0
2014-Apr-11 13:34N 59°20' E 018°05'0 0.0
2014-Apr-11 12:34N 59°20' E 018°05'0 0.0
2014-Apr-11 11:34N 59°20' E 018°05'0 0.0
2014-Apr-11 10:34N 59°20' E 018°05'0 0.0
2014-Apr-11 09:34N 59°20' E 018°05'0 0.0
2014-Apr-11 08:34N 59°20' E 018°05'0 0.0
2014-Apr-11 07:33N 59°20' E 018°05'0 0.0
2014-Apr-11 06:34N 59°20' E 018°05'0 0.0
2014-Apr-11 05:34N 59°20' E 018°05'0 0.0
2014-Apr-11 04:33N 59°20' E 018°05'0 0.0
2014-Apr-11 03:34N 59°20' E 018°05'0 0.0
2014-Apr-11 02:33N 59°20' E 018°05'0 0.0
2014-Apr-11 01:34N 59°20' E 018°05'0 0.0
2014-Apr-11 00:34N 59°20' E 018°05'0 0.0
2014-Apr-10 23:33N 59°20' E 018°05'0 0.0
2014-Apr-10 22:34N 59°20' E 018°05'0 0.0
2014-Apr-10 21:34N 59°20' E 018°05'0 0.0
2014-Apr-10 20:34N 59°20' E 018°05'0 0.0
2014-Apr-10 19:33N 59°20' E 018°05'0 0.0
2014-Apr-10 18:33N 59°20' E 018°05'0 0.0
2014-Apr-10 17:34N 59°20' E 018°05'0 0.0
2014-Apr-10 16:34N 59°20' E 018°05'0 0.0
2014-Apr-10 15:34N 59°20' E 018°05'0 0.0
2014-Apr-10 14:34N 59°20' E 018°05'0 0.0
2014-Apr-10 13:33N 59°20' E 018°05'0 0.0
2014-Apr-10 12:33N 59°20' E 018°05'0 0.0
2014-Apr-10 11:34N 59°20' E 018°05'  

Dump ship's entire track history

sailing weather and tide predictions

Cinderella 1 — SBLK — position and weather